sensor_id;sensor_type;location;lat;lon;timestamp;pressure;altitude;pressure_sealevel;temperature;humidity
69842;BME280;57138;51.326;-0.068;2023-07-09T00:00:00;99959.81;;;19.25;77.54
69842;BME280;57138;51.326;-0.068;2023-07-09T00:02:28;99955.41;;;19.19;77.34
69842;BME280;57138;51.326;-0.068;2023-07-09T00:04:53;99931.06;;;19.02;77.84
69842;BME280;57138;51.326;-0.068;2023-07-09T00:07:24;99953.03;;;19.06;77.42
69842;BME280;57138;51.326;-0.068;2023-07-09T00:09:50;99952.50;;;19.03;77.89
69842;BME280;57138;51.326;-0.068;2023-07-09T00:12:18;99954.25;;;18.93;77.65
69842;BME280;57138;51.326;-0.068;2023-07-09T00:14:44;99969.19;;;18.95;78.09
69842;BME280;57138;51.326;-0.068;2023-07-09T00:17:11;99953.25;;;18.82;78.13
69842;BME280;57138;51.326;-0.068;2023-07-09T00:19:38;99958.09;;;18.80;77.41
69842;BME280;57138;51.326;-0.068;2023-07-09T00:22:13;99964.59;;;18.79;77.84
69842;BME280;57138;51.326;-0.068;2023-07-09T00:24:42;99938.44;;;18.50;77.94
69842;BME280;57138;51.326;-0.068;2023-07-09T00:27:10;99976.34;;;18.67;78.76
69842;BME280;57138;51.326;-0.068;2023-07-09T00:29:35;99976.84;;;18.64;78.46
69842;BME280;57138;51.326;-0.068;2023-07-09T00:32:01;99974.13;;;18.64;78.23
69842;BME280;57138;51.326;-0.068;2023-07-09T00:34:26;99975.69;;;18.60;78.35
69842;BME280;57138;51.326;-0.068;2023-07-09T00:36:51;99983.81;;;18.60;78.52
69842;BME280;57138;51.326;-0.068;2023-07-09T00:39:22;99965.28;;;18.52;78.62
69842;BME280;57138;51.326;-0.068;2023-07-09T00:41:49;99965.28;;;18.52;78.69
69842;BME280;57138;51.326;-0.068;2023-07-09T00:44:29;99961.28;;;18.38;78.66
69842;BME280;57138;51.326;-0.068;2023-07-09T00:49:41;99976.03;;;18.47;79.16
69842;BME280;57138;51.326;-0.068;2023-07-09T00:52:33;99984.91;;;18.42;78.38
69842;BME280;57138;51.326;-0.068;2023-07-09T00:55:05;99989.81;;;18.45;78.94
69842;BME280;57138;51.326;-0.068;2023-07-09T00:57:34;99973.75;;;18.39;78.58
69842;BME280;57138;51.326;-0.068;2023-07-09T01:00:06;99987.28;;;18.39;78.90
69842;BME280;57138;51.326;-0.068;2023-07-09T01:02:36;99990.31;;;18.42;79.18
69842;BME280;57138;51.326;-0.068;2023-07-09T01:05:05;99990.31;;;18.42;79.42
69842;BME280;57138;51.326;-0.068;2023-07-09T01:07:33;99967.66;;;18.31;79.35
69842;BME280;57138;51.326;-0.068;2023-07-09T01:09:59;99971.28;;;18.37;79.62
69842;BME280;57138;51.326;-0.068;2023-07-09T01:12:25;99988.16;;;18.44;79.43
69842;BME280;57138;51.326;-0.068;2023-07-09T01:14:54;99991.78;;;18.50;79.61
69842;BME280;57138;51.326;-0.068;2023-07-09T01:17:25;99985.16;;;18.41;79.65
69842;BME280;57138;51.326;-0.068;2023-07-09T01:19:53;99995.56;;;18.49;79.51
69842;BME280;57138;51.326;-0.068;2023-07-09T01:22:20;99995.56;;;18.49;79.91
69842;BME280;57138;51.326;-0.068;2023-07-09T01:25:05;99987.44;;;18.49;79.72
69842;BME280;57138;51.326;-0.068;2023-07-09T01:27:40;99986.94;;;18.52;79.65
69842;BME280;57138;51.326;-0.068;2023-07-09T01:30:20;99996.72;;;18.53;80.33
69842;BME280;57138;51.326;-0.068;2023-07-09T01:32:50;99993.41;;;18.51;79.96
69842;BME280;57138;51.326;-0.068;2023-07-09T01:35:18;99998.81;;;18.51;79.77
69842;BME280;57138;51.326;-0.068;2023-07-09T01:37:45;99998.25;;;18.49;80.03
69842;BME280;57138;51.326;-0.068;2023-07-09T01:40:14;99977.03;;;18.41;79.78
69842;BME280;57138;51.326;-0.068;2023-07-09T01:42:40;99979.16;;;18.39;79.76
69842;BME280;57138;51.326;-0.068;2023-07-09T01:45:08;100004.25;;;18.51;79.80
69842;BME280;57138;51.326;-0.068;2023-07-09T01:47:36;100006.63;;;18.47;79.39
69842;BME280;57138;51.326;-0.068;2023-07-09T01:50:02;100013.94;;;18.47;79.99
69842;BME280;57138;51.326;-0.068;2023-07-09T01:52:29;100008.53;;;18.47;79.54
69842;BME280;57138;51.326;-0.068;2023-07-09T01:54:55;100005.75;;;18.42;79.58
69842;BME280;57138;51.326;-0.068;2023-07-09T01:57:26;99991.94;;;18.26;79.36
69842;BME280;57138;51.326;-0.068;2023-07-09T01:59:59;100006.97;;;18.34;79.44
69842;BME280;57138;51.326;-0.068;2023-07-09T02:02:25;100003.66;;;18.32;79.68
69842;BME280;57138;51.326;-0.068;2023-07-09T02:04:53;100013.13;;;18.29;79.78
69842;BME280;57138;51.326;-0.068;2023-07-09T02:07:20;100012.44;;;18.22;80.19
69842;BME280;57138;51.326;-0.068;2023-07-09T02:09:46;100013.41;;;18.16;79.84
69842;BME280;57138;51.326;-0.068;2023-07-09T02:12:12;100005.47;;;18.09;79.90
69842;BME280;57138;51.326;-0.068;2023-07-09T02:14:39;99984.84;;;17.91;79.75
69842;BME280;57138;51.326;-0.068;2023-07-09T02:17:06;100020.78;;;18.04;79.76
69842;BME280;57138;51.326;-0.068;2023-07-09T02:19:32;100010.09;;;17.97;79.89
69842;BME280;57138;51.326;-0.068;2023-07-09T02:21:58;100019.13;;;18.03;79.90
69842;BME280;57138;51.326;-0.068;2023-07-09T02:24:24;100008.13;;;17.92;79.66
69842;BME280;57138;51.326;-0.068;2023-07-09T02:26:57;100020.94;;;17.97;79.58
69842;BME280;57138;51.326;-0.068;2023-07-09T02:29:23;100017.78;;;17.88;79.51
69842;BME280;57138;51.326;-0.068;2023-07-09T02:31:51;100023.41;;;17.87;79.55
69842;BME280;57138;51.326;-0.068;2023-07-09T02:34:20;99999.72;;;17.65;80.23
69842;BME280;57138;51.326;-0.068;2023-07-09T02:36:46;100017.44;;;17.73;80.83
69842;BME280;57138;51.326;-0.068;2023-07-09T02:39:13;100015.13;;;17.65;80.91
69842;BME280;57138;51.326;-0.068;2023-07-09T02:41:39;100004.22;;;17.59;80.78
69842;BME280;57138;51.326;-0.068;2023-07-09T02:44:05;100025.00;;;17.59;81.07
69842;BME280;57138;51.326;-0.068;2023-07-09T02:46:31;100012.13;;;17.49;80.80
69842;BME280;57138;51.326;-0.068;2023-07-09T02:48:56;100018.94;;;17.52;80.92
69842;BME280;57138;51.326;-0.068;2023-07-09T02:51:23;99980.47;;;17.33;80.64
69842;BME280;57138;51.326;-0.068;2023-07-09T02:53:49;100018.47;;;17.55;81.03
69842;BME280;57138;51.326;-0.068;2023-07-09T02:56:14;99990.88;;;17.41;80.76
69842;BME280;57138;51.326;-0.068;2023-07-09T02:58:40;100009.91;;;17.46;80.56
69842;BME280;57138;51.326;-0.068;2023-07-09T03:01:05;100006.47;;;17.51;80.79
69842;BME280;57138;51.326;-0.068;2023-07-09T03:03:31;100006.72;;;17.49;80.81
69842;BME280;57138;51.326;-0.068;2023-07-09T03:05:56;100002.84;;;17.45;80.46
69842;BME280;57138;51.326;-0.068;2023-07-09T03:08:22;100012.03;;;17.44;80.55
69842;BME280;57138;51.326;-0.068;2023-07-09T03:10:48;100005.94;;;17.37;81.09
69842;BME280;57138;51.326;-0.068;2023-07-09T03:13:13;100014.03;;;17.37;81.21
69842;BME280;57138;51.326;-0.068;2023-07-09T03:15:38;99992.69;;;17.23;80.91
69842;BME280;57138;51.326;-0.068;2023-07-09T03:18:05;99945.03;;;16.94;81.13
69842;BME280;57138;51.326;-0.068;2023-07-09T03:20:31;99961.34;;;17.11;80.84
69842;BME280;57138;51.326;-0.068;2023-07-09T03:22:56;99981.28;;;17.21;80.79
69842;BME280;57138;51.326;-0.068;2023-07-09T03:25:22;99983.75;;;17.23;80.78
69842;BME280;57138;51.326;-0.068;2023-07-09T03:27:48;99976.84;;;17.15;81.03
69842;BME280;57138;51.326;-0.068;2023-07-09T03:30:14;99980.38;;;17.16;81.59
69842;BME280;57138;51.326;-0.068;2023-07-09T03:32:39;99985.06;;;17.20;81.62
69842;BME280;57138;51.326;-0.068;2023-07-09T03:35:05;99990.00;;;17.23;81.89
69842;BME280;57138;51.326;-0.068;2023-07-09T03:37:30;99991.63;;;17.24;81.94
69842;BME280;57138;51.326;-0.068;2023-07-09T03:39:55;100004.06;;;17.25;81.92
69842;BME280;57138;51.326;-0.068;2023-07-09T03:42:21;99990.13;;;17.05;81.79
69842;BME280;57138;51.326;-0.068;2023-07-09T03:44:47;100012.09;;;17.20;82.01
69842;BME280;57138;51.326;-0.068;2023-07-09T03:47:12;100024.03;;;17.24;81.95
69842;BME280;57138;51.326;-0.068;2023-07-09T03:49:38;100032.63;;;17.21;82.20
69842;BME280;57138;51.326;-0.068;2023-07-09T03:52:03;100032.63;;;17.21;82.48
69842;BME280;57138;51.326;-0.068;2023-07-09T03:54:29;100009.72;;;17.12;81.80
69842;BME280;57138;51.326;-0.068;2023-07-09T03:56:54;100013.72;;;17.21;82.52
69842;BME280;57138;51.326;-0.068;2023-07-09T03:59:20;99992.84;;;17.05;81.69
69842;BME280;57138;51.326;-0.068;2023-07-09T04:01:45;100011.03;;;17.10;82.22
69842;BME280;57138;51.326;-0.068;2023-07-09T04:04:14;100026.63;;;17.19;82.81
69842;BME280;57138;51.326;-0.068;2023-07-09T04:06:39;100001.53;;;17.07;82.70
69842;BME280;57138;51.326;-0.068;2023-07-09T04:09:04;100023.84;;;17.14;82.80
69842;BME280;57138;51.326;-0.068;2023-07-09T04:11:30;100010.34;;;17.02;82.23
69842;BME280;57138;51.326;-0.068;2023-07-09T04:13:55;100018.53;;;17.07;82.45
69842;BME280;57138;51.326;-0.068;2023-07-09T04:16:21;100035.13;;;17.11;82.35
69842;BME280;57138;51.326;-0.068;2023-07-09T04:18:46;100004.22;;;16.95;82.57
69842;BME280;57138;51.326;-0.068;2023-07-09T04:21:12;100030.53;;;17.12;82.27
69842;BME280;57138;51.326;-0.068;2023-07-09T04:23:37;100009.38;;;16.97;82.62
69842;BME280;57138;51.326;-0.068;2023-07-09T04:26:02;100012.94;;;16.97;82.63
69842;BME280;57138;51.326;-0.068;2023-07-09T04:28:30;100021.13;;;17.02;83.09
69842;BME280;57138;51.326;-0.068;2023-07-09T04:30:56;100025.25;;;17.05;82.87
69842;BME280;57138;51.326;-0.068;2023-07-09T04:33:21;100023.03;;;17.02;83.21
69842;BME280;57138;51.326;-0.068;2023-07-09T04:35:48;100039.22;;;17.02;82.90
69842;BME280;57138;51.326;-0.068;2023-07-09T04:38:15;100038.28;;;16.96;82.82
69842;BME280;57138;51.326;-0.068;2023-07-09T04:40:41;100044.03;;;17.00;82.59
69842;BME280;57138;51.326;-0.068;2023-07-09T04:43:06;100047.19;;;16.97;83.03
69842;BME280;57138;51.326;-0.068;2023-07-09T04:45:32;100039.31;;;16.83;82.61
69842;BME280;57138;51.326;-0.068;2023-07-09T04:47:58;100044.28;;;16.86;82.75
69842;BME280;57138;51.326;-0.068;2023-07-09T04:50:23;100046.28;;;16.91;82.77
69842;BME280;57138;51.326;-0.068;2023-07-09T04:52:48;100050.84;;;16.91;83.50
69842;BME280;57138;51.326;-0.068;2023-07-09T04:55:14;100044.03;;;16.88;83.17
69842;BME280;57138;51.326;-0.068;2023-07-09T04:57:39;100048.75;;;16.93;82.96
69842;BME280;57138;51.326;-0.068;2023-07-09T05:00:05;100037.19;;;16.85;82.70
69842;BME280;57138;51.326;-0.068;2023-07-09T05:02:31;100043.09;;;16.94;82.67
69842;BME280;57138;51.326;-0.068;2023-07-09T05:04:57;100038.03;;;16.86;82.67
69842;BME280;57138;51.326;-0.068;2023-07-09T05:07:22;100052.03;;;16.95;82.49
69842;BME280;57138;51.326;-0.068;2023-07-09T05:09:48;100042.59;;;16.85;83.00
69842;BME280;57138;51.326;-0.068;2023-07-09T05:12:13;100062.59;;;16.96;83.08
69842;BME280;57138;51.326;-0.068;2023-07-09T05:14:39;100060.69;;;16.97;82.30
69842;BME280;57138;51.326;-0.068;2023-07-09T05:17:05;100064.47;;;16.96;82.34
69842;BME280;57138;51.326;-0.068;2023-07-09T05:19:31;100061.53;;;16.97;82.82
69842;BME280;57138;51.326;-0.068;2023-07-09T05:21:57;100059.53;;;16.93;82.54
69842;BME280;57138;51.326;-0.068;2023-07-09T05:24:22;100082.56;;;17.07;82.83
69842;BME280;57138;51.326;-0.068;2023-07-09T05:26:48;100079.97;;;17.12;82.83
69842;BME280;57138;51.326;-0.068;2023-07-09T05:29:13;100050.28;;;17.00;83.30
69842;BME280;57138;51.326;-0.068;2023-07-09T05:31:38;100075.97;;;17.03;82.33
69842;BME280;57138;51.326;-0.068;2023-07-09T05:34:04;100079.03;;;17.06;82.38
69842;BME280;57138;51.326;-0.068;2023-07-09T05:36:30;100085.03;;;17.20;82.67
69842;BME280;57138;51.326;-0.068;2023-07-09T05:38:56;100084.91;;;17.15;82.24
69842;BME280;57138;51.326;-0.068;2023-07-09T05:41:21;100095.34;;;17.12;82.28
69842;BME280;57138;51.326;-0.068;2023-07-09T05:43:49;100109.34;;;17.09;82.01
69842;BME280;57138;51.326;-0.068;2023-07-09T05:46:14;100093.94;;;17.09;82.21
69842;BME280;57138;51.326;-0.068;2023-07-09T05:48:40;100069.88;;;16.96;81.99
69842;BME280;57138;51.326;-0.068;2023-07-09T05:51:05;100090.41;;;17.09;82.37
69842;BME280;57138;51.326;-0.068;2023-07-09T05:53:31;100082.91;;;17.11;82.69
69842;BME280;57138;51.326;-0.068;2023-07-09T05:55:58;100087.50;;;17.10;82.10
69842;BME280;57138;51.326;-0.068;2023-07-09T05:58:24;100090.19;;;17.10;82.01
69842;BME280;57138;51.326;-0.068;2023-07-09T06:00:51;100044.97;;;16.94;82.66
69842;BME280;57138;51.326;-0.068;2023-07-09T06:03:19;100050.63;;;17.04;82.87
69842;BME280;57138;51.326;-0.068;2023-07-09T06:05:44;100067.63;;;17.16;82.38
69842;BME280;57138;51.326;-0.068;2023-07-09T06:08:09;100048.50;;;17.06;82.84
69842;BME280;57138;51.326;-0.068;2023-07-09T06:10:37;100054.13;;;17.16;82.82
69842;BME280;57138;51.326;-0.068;2023-07-09T06:13:03;100062.94;;;17.23;83.46
69842;BME280;57138;51.326;-0.068;2023-07-09T06:15:28;100033.00;;;17.13;83.33
69842;BME280;57138;51.326;-0.068;2023-07-09T06:17:54;100053.28;;;17.28;82.91
69842;BME280;57138;51.326;-0.068;2023-07-09T06:20:19;100040.03;;;17.14;83.22
69842;BME280;57138;51.326;-0.068;2023-07-09T06:22:45;100080.06;;;17.29;83.25
69842;BME280;57138;51.326;-0.068;2023-07-09T06:25:10;100073.63;;;17.18;83.34
69842;BME280;57138;51.326;-0.068;2023-07-09T06:27:35;100104.41;;;17.17;83.35
69842;BME280;57138;51.326;-0.068;2023-07-09T06:30:01;100102.66;;;17.11;83.19
69842;BME280;57138;51.326;-0.068;2023-07-09T06:32:26;100106.03;;;17.18;83.59
69842;BME280;57138;51.326;-0.068;2023-07-09T06:34:52;100095.25;;;17.06;83.76
69842;BME280;57138;51.326;-0.068;2023-07-09T06:37:17;100095.22;;;17.18;83.89
69842;BME280;57138;51.326;-0.068;2023-07-09T06:39:43;100083.47;;;17.24;84.34
69842;BME280;57138;51.326;-0.068;2023-07-09T06:42:08;100076.91;;;17.32;84.18
69842;BME280;57138;51.326;-0.068;2023-07-09T06:44:33;100099.19;;;17.51;83.46
69842;BME280;57138;51.326;-0.068;2023-07-09T06:46:59;100107.44;;;17.56;83.11
69842;BME280;57138;51.326;-0.068;2023-07-09T06:49:24;100098.72;;;17.54;83.20
69842;BME280;57138;51.326;-0.068;2023-07-09T06:51:50;100110.72;;;17.58;82.87
69842;BME280;57138;51.326;-0.068;2023-07-09T06:54:15;100116.81;;;17.66;82.19
69842;BME280;57138;51.326;-0.068;2023-07-09T06:56:41;100122.22;;;17.66;81.60
69842;BME280;57138;51.326;-0.068;2023-07-09T06:59:06;100124.22;;;17.70;81.64
69842;BME280;57138;51.326;-0.068;2023-07-09T07:01:32;100096.63;;;17.56;81.51
69842;BME280;57138;51.326;-0.068;2023-07-09T07:03:57;100105.78;;;17.55;81.17
69842;BME280;57138;51.326;-0.068;2023-07-09T07:06:23;100119.88;;;17.57;81.14
69842;BME280;57138;51.326;-0.068;2023-07-09T07:08:49;100102.03;;;17.45;80.76
69842;BME280;57138;51.326;-0.068;2023-07-09T07:11:14;100119.06;;;17.57;80.49
69842;BME280;57138;51.326;-0.068;2023-07-09T07:13:41;100137.28;;;17.61;80.25
69842;BME280;57138;51.326;-0.068;2023-07-09T07:16:10;100146.44;;;17.60;80.41
69842;BME280;57138;51.326;-0.068;2023-07-09T07:18:36;100154.91;;;17.64;80.08
69842;BME280;57138;51.326;-0.068;2023-07-09T07:21:02;100149.03;;;17.55;79.98
69842;BME280;57138;51.326;-0.068;2023-07-09T07:23:28;100169.13;;;17.48;80.06
69842;BME280;57138;51.326;-0.068;2023-07-09T07:25:54;100198.88;;;17.59;79.90
69842;BME280;57138;51.326;-0.068;2023-07-09T07:28:20;100181.00;;;17.58;80.17
69842;BME280;57138;51.326;-0.068;2023-07-09T07:30:46;100140.09;;;17.43;79.76
69842;BME280;57138;51.326;-0.068;2023-07-09T07:33:13;100160.56;;;17.63;80.03
69842;BME280;57138;51.326;-0.068;2023-07-09T07:35:39;100130.59;;;17.64;80.29
69842;BME280;57138;51.326;-0.068;2023-07-09T07:38:04;100143.03;;;17.89;79.59
69842;BME280;57138;51.326;-0.068;2023-07-09T07:40:30;100136.84;;;18.17;79.31
69842;BME280;57138;51.326;-0.068;2023-07-09T07:42:55;100127.31;;;18.43;78.96
69842;BME280;57138;51.326;-0.068;2023-07-09T07:45:21;100148.19;;;18.77;75.91
69842;BME280;57138;51.326;-0.068;2023-07-09T07:47:47;100145.78;;;18.92;75.54
69842;BME280;57138;51.326;-0.068;2023-07-09T07:50:13;100132.88;;;18.99;71.04
69842;BME280;57138;51.326;-0.068;2023-07-09T07:52:38;100141.34;;;19.03;67.82
69842;BME280;57138;51.326;-0.068;2023-07-09T07:55:08;100136.06;;;18.96;65.63
69842;BME280;57138;51.326;-0.068;2023-07-09T07:57:34;100135.25;;;18.96;64.31
69842;BME280;57138;51.326;-0.068;2023-07-09T08:00:00;100127.69;;;18.98;62.76
69842;BME280;57138;51.326;-0.068;2023-07-09T08:02:26;100124.75;;;18.99;63.35
69842;BME280;57138;51.326;-0.068;2023-07-09T08:04:51;100128.84;;;19.02;64.31
69842;BME280;57138;51.326;-0.068;2023-07-09T08:07:18;100130.16;;;18.99;62.61
69842;BME280;57138;51.326;-0.068;2023-07-09T08:09:45;100105.63;;;18.89;62.08
69842;BME280;57138;51.326;-0.068;2023-07-09T08:12:12;100127.56;;;19.04;61.82
69842;BME280;57138;51.326;-0.068;2023-07-09T08:14:39;100126.31;;;19.12;63.21
69842;BME280;57138;51.326;-0.068;2023-07-09T08:17:05;100120.50;;;19.03;63.67
69842;BME280;57138;51.326;-0.068;2023-07-09T08:19:32;100158.41;;;19.20;64.00
69842;BME280;57138;51.326;-0.068;2023-07-09T08:21:58;100181.41;;;19.18;63.90
69842;BME280;57138;51.326;-0.068;2023-07-09T08:24:24;100184.59;;;19.15;62.73
69842;BME280;57138;51.326;-0.068;2023-07-09T08:26:49;100169.91;;;18.94;62.93
69842;BME280;57138;51.326;-0.068;2023-07-09T08:29:16;100172.56;;;18.89;61.48
69842;BME280;57138;51.326;-0.068;2023-07-09T08:31:42;100188.44;;;18.85;59.84
69842;BME280;57138;51.326;-0.068;2023-07-09T08:34:08;100196.38;;;18.75;60.16
69842;BME280;57138;51.326;-0.068;2023-07-09T08:36:33;100172.13;;;18.68;59.89
69842;BME280;57138;51.326;-0.068;2023-07-09T08:39:03;100158.75;;;18.61;59.28
69842;BME280;57138;51.326;-0.068;2023-07-09T08:41:48;100162.53;;;18.60;59.16
69842;BME280;57138;51.326;-0.068;2023-07-09T08:45:00;100160.41;;;18.62;60.67
69842;BME280;57138;51.326;-0.068;2023-07-09T08:47:33;100148.50;;;18.63;59.42
69842;BME280;57138;51.326;-0.068;2023-07-09T08:50:15;100137.66;;;18.63;59.57
69842;BME280;57138;51.326;-0.068;2023-07-09T08:52:44;100116.66;;;18.71;60.54
69842;BME280;57138;51.326;-0.068;2023-07-09T08:55:19;100099.63;;;18.70;61.11
69842;BME280;57138;51.326;-0.068;2023-07-09T08:57:46;100098.94;;;18.80;62.02
69842;BME280;57138;51.326;-0.068;2023-07-09T09:03:03;100120.84;;;18.90;61.12
69842;BME280;57138;51.326;-0.068;2023-07-09T09:05:33;100124.59;;;18.89;59.47
69842;BME280;57138;51.326;-0.068;2023-07-09T09:10:47;100108.50;;;18.99;59.76
69842;BME280;57138;51.326;-0.068;2023-07-09T09:13:16;100118.34;;;19.06;60.90
69842;BME280;57138;51.326;-0.068;2023-07-09T09:15:44;100117.28;;;19.07;61.02
69842;BME280;57138;51.326;-0.068;2023-07-09T09:18:26;100122.94;;;19.05;61.64
69842;BME280;57138;51.326;-0.068;2023-07-09T09:20:58;100132.78;;;19.11;60.80
69842;BME280;57138;51.326;-0.068;2023-07-09T09:23:36;100139.53;;;19.09;61.00
69842;BME280;57138;51.326;-0.068;2023-07-09T09:26:09;100141.09;;;19.04;61.29
69842;BME280;57138;51.326;-0.068;2023-07-09T09:28:39;100149.88;;;19.12;62.20
69842;BME280;57138;51.326;-0.068;2023-07-09T09:31:05;100176.47;;;19.32;62.15
69842;BME280;57138;51.326;-0.068;2023-07-09T09:33:43;100176.22;;;19.33;61.75
69842;BME280;57138;51.326;-0.068;2023-07-09T09:36:19;100199.50;;;19.46;60.57
69842;BME280;57138;51.326;-0.068;2023-07-09T09:38:44;100193.53;;;19.49;60.76
69842;BME280;57138;51.326;-0.068;2023-07-09T09:41:22;100176.97;;;19.46;60.46
69842;BME280;57138;51.326;-0.068;2023-07-09T09:43:50;100179.84;;;19.56;60.60
69842;BME280;57138;51.326;-0.068;2023-07-09T09:46:19;100169.53;;;19.58;60.12
69842;BME280;57138;51.326;-0.068;2023-07-09T09:48:47;100165.03;;;19.64;60.11
69842;BME280;57138;51.326;-0.068;2023-07-09T09:51:13;100167.00;;;19.68;60.47
69842;BME280;57138;51.326;-0.068;2023-07-09T09:53:40;100157.13;;;19.62;59.83
69842;BME280;57138;51.326;-0.068;2023-07-09T09:56:14;100139.28;;;19.66;59.82
69842;BME280;57138;51.326;-0.068;2023-07-09T09:58:41;100160.47;;;19.69;59.89
69842;BME280;57138;51.326;-0.068;2023-07-09T10:01:14;100172.22;;;19.75;60.17
69842;BME280;57138;51.326;-0.068;2023-07-09T10:03:40;100167.72;;;19.81;60.43
69842;BME280;57138;51.326;-0.068;2023-07-09T10:06:40;100158.94;;;19.96;59.84
69842;BME280;57138;51.326;-0.068;2023-07-09T10:12:44;100170.44;;;20.25;58.16
69842;BME280;57138;51.326;-0.068;2023-07-09T10:15:45;100159.13;;;20.33;59.26
69842;BME280;57138;51.326;-0.068;2023-07-09T10:18:27;100164.56;;;20.60;58.79
69842;BME280;57138;51.326;-0.068;2023-07-09T10:24:13;100167.59;;;20.64;56.58
69842;BME280;57138;51.326;-0.068;2023-07-09T10:26:56;100145.19;;;20.52;56.67
69842;BME280;57138;51.326;-0.068;2023-07-09T10:29:38;100174.09;;;20.63;56.82
69842;BME280;57138;51.326;-0.068;2023-07-09T10:32:31;100167.59;;;20.64;57.16
69842;BME280;57138;51.326;-0.068;2023-07-09T10:37:49;100167.94;;;21.00;57.40
69842;BME280;57138;51.326;-0.068;2023-07-09T10:40:26;100126.31;;;20.94;56.64
69842;BME280;57138;51.326;-0.068;2023-07-09T10:42:59;100155.00;;;21.12;55.45
69842;BME280;57138;51.326;-0.068;2023-07-09T10:45:33;100169.22;;;21.25;55.88
69842;BME280;57138;51.326;-0.068;2023-07-09T10:48:17;100161.16;;;21.40;56.33
69842;BME280;57138;51.326;-0.068;2023-07-09T10:50:52;100160.44;;;21.50;55.00
69842;BME280;57138;51.326;-0.068;2023-07-09T10:53:28;100149.25;;;21.46;54.61
69842;BME280;57138;51.326;-0.068;2023-07-09T10:56:02;100123.78;;;21.20;53.83
69842;BME280;57138;51.326;-0.068;2023-07-09T10:58:35;100168.25;;;21.41;53.90
69842;BME280;57138;51.326;-0.068;2023-07-09T11:01:03;100149.69;;;21.33;55.08
69842;BME280;57138;51.326;-0.068;2023-07-09T11:04:06;100158.03;;;21.53;54.30
69842;BME280;57138;51.326;-0.068;2023-07-09T11:07:02;100117.09;;;21.38;54.00
69842;BME280;57138;51.326;-0.068;2023-07-09T11:09:39;100143.97;;;21.72;54.57
69842;BME280;57138;51.326;-0.068;2023-07-09T11:12:22;100147.28;;;21.79;53.45
69842;BME280;57138;51.326;-0.068;2023-07-09T11:15:02;100171.22;;;21.77;52.74
69842;BME280;57138;51.326;-0.068;2023-07-09T11:17:30;100159.97;;;21.63;53.61
69842;BME280;57138;51.326;-0.068;2023-07-09T11:19:59;100172.75;;;21.63;53.38
69842;BME280;57138;51.326;-0.068;2023-07-09T11:22:37;100170.56;;;21.60;53.71
69842;BME280;57138;51.326;-0.068;2023-07-09T11:25:11;100178.69;;;21.54;53.67
69842;BME280;57138;51.326;-0.068;2023-07-09T11:28:00;100175.44;;;21.52;54.66
69842;BME280;57138;51.326;-0.068;2023-07-09T11:30:28;100171.63;;;21.53;55.32
69842;BME280;57138;51.326;-0.068;2023-07-09T11:32:59;100178.16;;;21.58;55.32
69842;BME280;57138;51.326;-0.068;2023-07-09T11:35:29;100164.59;;;21.63;55.11
69842;BME280;57138;51.326;-0.068;2023-07-09T11:37:55;100164.06;;;21.66;54.43
69842;BME280;57138;51.326;-0.068;2023-07-09T11:40:22;100143.34;;;21.60;55.38
69842;BME280;57138;51.326;-0.068;2023-07-09T11:42:57;100161.41;;;21.81;54.80
69842;BME280;57138;51.326;-0.068;2023-07-09T11:45:27;100164.19;;;21.86;54.31
69842;BME280;57138;51.326;-0.068;2023-07-09T11:48:09;100181.06;;;21.88;53.89
69842;BME280;57138;51.326;-0.068;2023-07-09T11:50:49;100183.78;;;21.83;53.70
69842;BME280;57138;51.326;-0.068;2023-07-09T11:55:47;100155.97;;;21.76;53.97
69842;BME280;57138;51.326;-0.068;2023-07-09T11:58:18;100154.88;;;21.77;54.01
69842;BME280;57138;51.326;-0.068;2023-07-09T12:00:52;100144.56;;;21.84;54.09
69842;BME280;57138;51.326;-0.068;2023-07-09T12:03:30;100142.44;;;21.97;56.02
69842;BME280;57138;51.326;-0.068;2023-07-09T12:06:03;100146.59;;;22.10;54.82
69842;BME280;57138;51.326;-0.068;2023-07-09T12:08:34;100160.75;;;22.22;53.90
69842;BME280;57138;51.326;-0.068;2023-07-09T12:11:00;100165.41;;;22.21;54.04
69842;BME280;57138;51.326;-0.068;2023-07-09T12:13:28;100150.47;;;22.34;54.83
69842;BME280;57138;51.326;-0.068;2023-07-09T12:15:53;100159.81;;;22.54;54.92
69842;BME280;57138;51.326;-0.068;2023-07-09T12:18:19;100135.84;;;22.66;54.36
69842;BME280;57138;51.326;-0.068;2023-07-09T12:20:50;100149.75;;;22.85;54.76
69842;BME280;57138;51.326;-0.068;2023-07-09T12:23:25;100158.25;;;23.09;53.41
69842;BME280;57138;51.326;-0.068;2023-07-09T12:25:53;100169.94;;;23.20;53.24
69842;BME280;57138;51.326;-0.068;2023-07-09T12:28:20;100157.94;;;23.26;53.51
69842;BME280;57138;51.326;-0.068;2023-07-09T12:30:47;100171.84;;;23.45;53.56
69842;BME280;57138;51.326;-0.068;2023-07-09T12:33:17;100160.63;;;23.42;52.21
69842;BME280;57138;51.326;-0.068;2023-07-09T12:35:43;100159.28;;;23.34;52.21
69842;BME280;57138;51.326;-0.068;2023-07-09T12:38:17;100157.38;;;23.29;52.77
69842;BME280;57138;51.326;-0.068;2023-07-09T12:40:44;100168.31;;;23.19;52.25
69842;BME280;57138;51.326;-0.068;2023-07-09T12:43:11;100162.03;;;23.03;53.05
69842;BME280;57138;51.326;-0.068;2023-07-09T12:45:36;100159.00;;;23.00;52.27
69842;BME280;57138;51.326;-0.068;2023-07-09T12:48:02;100175.66;;;22.88;52.72
69842;BME280;57138;51.326;-0.068;2023-07-09T12:50:35;100177.81;;;22.75;52.27
69842;BME280;57138;51.326;-0.068;2023-07-09T12:53:13;100177.25;;;22.63;51.63
69842;BME280;57138;51.326;-0.068;2023-07-09T12:55:41;100174.78;;;22.51;52.65
69842;BME280;57138;51.326;-0.068;2023-07-09T12:58:23;100178.03;;;22.43;52.82
69842;BME280;57138;51.326;-0.068;2023-07-09T13:00:53;100173.66;;;22.42;52.61
69842;BME280;57138;51.326;-0.068;2023-07-09T13:03:21;100173.13;;;22.45;54.41
69842;BME280;57138;51.326;-0.068;2023-07-09T13:06:01;100156.78;;;22.40;53.18
69842;BME280;57138;51.326;-0.068;2023-07-09T13:08:30;100180.50;;;22.50;52.80
69842;BME280;57138;51.326;-0.068;2023-07-09T13:10:56;100178.59;;;22.50;53.55